createdAt,value
2023-05-05T00:01:57.490Z,47.79
2023-05-05T00:05:18.002Z,48.09
2023-05-05T00:08:23.015Z,48.32
2023-05-05T00:11:26.641Z,48.37
2023-05-05T00:14:37.185Z,48.54
2023-05-05T00:17:46.814Z,49.23
2023-05-05T00:20:50.354Z,49.04
2023-05-05T00:23:54.499Z,49.85
2023-05-05T00:27:08.246Z,49.49
2023-05-05T00:30:13.958Z,49.52
2023-05-05T00:33:21.209Z,49.47
2023-05-05T00:36:42.854Z,49.97
2023-05-05T00:39:45.790Z,50.25
2023-05-05T00:42:51.021Z,50.78
2023-05-05T00:46:10.376Z,50.70
2023-05-05T00:49:21.343Z,51.26
2023-05-05T00:52:28.160Z,52.36
2023-05-05T00:55:48.015Z,52.71
2023-05-05T00:58:52.294Z,52.87
2023-05-05T01:02:00.665Z,53.29
2023-05-05T01:05:19.965Z,53.47
2023-05-05T01:08:45.815Z,53.88
2023-05-05T01:12:07.034Z,53.69
2023-05-05T01:15:32.219Z,54.01
2023-05-05T01:19:04.359Z,53.93
2023-05-05T01:22:22.026Z,55.16
2023-05-05T01:26:15.010Z,55.02
2023-05-05T01:29:48.292Z,55.35
2023-05-05T01:33:17.009Z,55.14
2023-05-05T01:36:49.937Z,54.71
2023-05-05T01:39:59.615Z,54.46
2023-05-05T01:43:26.715Z,54.06
2023-05-05T01:47:05.941Z,53.74
2023-05-05T01:50:24.901Z,54.07
2023-05-05T01:53:35.053Z,55.30
2023-05-05T01:56:48.834Z,55.80
2023-05-05T02:00:07.708Z,56.59
2023-05-05T02:03:32.498Z,57.85
2023-05-05T02:06:53.480Z,59.03
2023-05-05T02:10:14.850Z,60.00
2023-05-05T02:13:26.271Z,60.20
2023-05-05T02:16:31.308Z,60.21
2023-05-05T02:19:45.983Z,60.50
2023-05-05T02:23:23.925Z,60.75
2023-05-05T02:27:06.890Z,60.43
2023-05-05T02:30:35.597Z,59.75
2023-05-05T02:33:50.600Z,61.02
2023-05-05T02:37:16.605Z,61.02
2023-05-05T02:40:37.462Z,62.04
2023-05-05T02:44:01.633Z,62.95
2023-05-05T02:47:24.483Z,62.58
2023-05-05T02:50:42.650Z,63.22
2023-05-05T02:54:04.640Z,64.16
2023-05-05T02:57:25.757Z,63.66
2023-05-05T03:00:57.909Z,63.61
2023-05-05T03:04:30.406Z,64.13
2023-05-05T03:07:54.184Z,63.48
2023-05-05T03:11:06.846Z,63.12
2023-05-05T03:14:22.219Z,62.62
2023-05-05T03:17:44.788Z,62.38
2023-05-05T03:20:55.441Z,62.57
2023-05-05T03:24:18.599Z,62.90
2023-05-05T03:27:45.652Z,62.61
2023-05-05T03:31:04.019Z,62.56
2023-05-05T03:34:18.724Z,63.00
2023-05-05T03:37:52.616Z,63.06
2023-05-05T03:41:37.623Z,63.20
2023-05-05T03:45:15.726Z,63.82
2023-05-05T03:48:49.069Z,63.20
2023-05-05T03:52:24.850Z,63.80
2023-05-05T03:55:40.466Z,63.99
2023-05-05T03:59:03.508Z,64.52
2023-05-05T04:02:26.548Z,65.29
2023-05-05T04:05:44.432Z,64.51
2023-05-05T04:09:36.272Z,64.13
2023-05-05T04:13:08.206Z,63.94
2023-05-05T04:16:45.694Z,64.60
2023-05-05T04:20:14.077Z,63.21
2023-05-05T04:23:41.433Z,63.52
2023-05-05T04:27:12.786Z,63.70
2023-05-05T04:30:44.330Z,63.39
2023-05-05T04:34:18.441Z,63.73
2023-05-05T04:37:44.179Z,65.11
2023-05-05T04:41:07.514Z,64.71
2023-05-05T04:44:39.858Z,65.29
2023-05-05T04:47:55.394Z,64.43
2023-05-05T04:51:12.252Z,63.33
2023-05-05T04:54:29.598Z,63.40
2023-05-05T04:57:44.466Z,63.31
2023-05-05T05:01:00.702Z,63.75
2023-05-05T05:04:30.314Z,63.35
2023-05-05T05:08:04.418Z,63.02
2023-05-05T05:11:26.980Z,63.50
2023-05-05T05:14:48.986Z,62.55
2023-05-05T05:18:12.320Z,61.61
2023-05-05T05:21:33.386Z,61.63
2023-05-05T05:24:54.793Z,61.84
2023-05-05T05:28:18.191Z,61.04
2023-05-05T05:31:44.060Z,61.08
2023-05-05T05:34:49.952Z,61.76
2023-05-05T05:37:54.236Z,62.32
2023-05-05T05:41:28.146Z,61.48
2023-05-05T05:44:32.917Z,60.64
2023-05-05T05:47:43.753Z,60.53
2023-05-05T05:50:54.744Z,59.31
2023-05-05T05:53:58.929Z,56.14
2023-05-05T05:57:10.801Z,56.17
2023-05-05T06:00:20.368Z,56.08
2023-05-05T06:03:52.843Z,54.75
2023-05-05T06:07:13.744Z,54.78
2023-05-05T06:10:28.968Z,54.02
2023-05-05T06:13:48.439Z,52.43
2023-05-05T06:21:27.441Z,53.00
2023-05-05T06:24:32.173Z,53.88
2023-05-05T06:27:59.373Z,52.95
2023-05-05T06:31:40.486Z,50.77
2023-05-05T06:34:52.784Z,49.58
2023-05-05T06:38:09.888Z,48.25
2023-05-05T06:41:27.015Z,47.68
2023-05-05T06:44:36.957Z,47.53
2023-05-05T06:47:41.876Z,47.45
2023-05-05T06:50:45.778Z,46.31
2023-05-05T06:54:01.385Z,47.77
2023-05-05T06:57:05.608Z,46.36
2023-05-05T07:00:15.159Z,46.36
2023-05-05T07:03:20.785Z,46.09
2023-05-05T07:06:31.938Z,45.92
2023-05-05T07:14:24.716Z,46.34
2023-05-05T07:17:31.878Z,46.36
2023-05-05T07:20:48.958Z,45.81
2023-05-05T07:23:56.871Z,45.16
2023-05-05T07:27:04.343Z,45.90
2023-05-05T07:30:17.336Z,45.40
2023-05-05T07:33:43.717Z,45.03
2023-05-05T07:37:05.148Z,45.00
2023-05-05T07:41:00.611Z,44.61
2023-05-05T07:44:27.199Z,44.71
2023-05-05T07:47:51.706Z,44.09
2023-05-05T07:50:59.730Z,44.42
2023-05-05T07:54:04.542Z,45.11
2023-05-05T07:57:14.821Z,44.00
2023-05-05T08:01:13.289Z,44.57
2023-05-05T08:04:18.356Z,44.34
2023-05-05T08:07:22.327Z,44.47
2023-05-05T08:11:19.215Z,44.26
2023-05-05T08:14:25.383Z,44.05
2023-05-05T08:17:29.499Z,45.02
2023-05-05T08:20:46.008Z,43.49
2023-05-05T08:23:49.180Z,43.50
2023-05-05T08:26:53.011Z,43.64
2023-05-05T08:30:06.229Z,43.60
2023-05-05T08:33:11.299Z,44.18
2023-05-05T08:36:14.767Z,46.30
2023-05-05T08:39:23.133Z,45.73
2023-05-05T08:42:37.054Z,43.78
2023-05-05T08:45:57.018Z,43.60
2023-05-05T08:49:28.052Z,43.00
2023-05-05T08:52:51.390Z,43.26
2023-05-05T08:56:08.255Z,42.50
2023-05-05T08:59:37.645Z,43.69
2023-05-05T09:03:00.227Z,43.03
2023-05-05T09:06:21.860Z,43.38
2023-05-05T09:09:27.249Z,43.41
2023-05-05T09:12:51.922Z,43.23
2023-05-05T09:16:05.652Z,43.07
2023-05-05T09:19:12.924Z,42.07
2023-05-05T09:22:41.594Z,42.89
2023-05-05T09:26:10.060Z,42.02
2023-05-05T09:29:36.612Z,41.94
2023-05-05T09:32:52.982Z,41.38
2023-05-05T09:36:01.363Z,41.28
2023-05-05T09:39:13.289Z,41.41
2023-05-05T09:42:27.414Z,41.23
2023-05-05T09:45:37.502Z,41.07
2023-05-05T09:49:01.889Z,40.99
2023-05-05T09:52:36.373Z,40.93
2023-05-05T09:56:30.905Z,41.53
2023-05-05T09:59:34.260Z,40.25
2023-05-05T10:02:43.593Z,40.34
2023-05-05T10:06:04.914Z,39.00
2023-05-05T10:09:27.632Z,38.89
2023-05-05T10:12:32.515Z,39.76
2023-05-05T10:15:36.500Z,38.85
2023-05-05T10:18:47.290Z,38.42
2023-05-05T10:22:04.411Z,37.94
2023-05-05T10:25:22.845Z,37.03
2023-05-05T10:28:35.029Z,35.32
2023-05-05T10:31:54.694Z,35.96
2023-05-05T10:35:03.769Z,35.95
2023-05-05T10:38:11.626Z,36.37
2023-05-05T10:41:28.500Z,35.44
2023-05-05T10:44:38.419Z,36.42
2023-05-05T10:48:02.554Z,35.82
2023-05-05T10:51:39.403Z,34.41
2023-05-05T10:54:57.972Z,33.44
2023-05-05T10:58:12.512Z,33.85
2023-05-05T11:01:36.471Z,33.46
2023-05-05T11:05:15.265Z,33.67
2023-05-05T11:08:26.978Z,34.55
2023-05-05T11:12:09.819Z,33.60
2023-05-05T11:15:32.061Z,33.00
2023-05-05T11:18:43.367Z,32.56
2023-05-05T11:22:03.175Z,32.96
2023-05-05T11:25:34.852Z,32.62
2023-05-05T11:29:04.875Z,32.01
2023-05-05T11:32:20.378Z,32.63
2023-05-05T11:35:56.378Z,31.71
2023-05-05T11:39:25.567Z,30.63
2023-05-05T11:42:41.422Z,29.25
2023-05-05T11:45:45.109Z,30.20
2023-05-05T11:48:54.063Z,30.16
2023-05-05T11:52:02.681Z,29.40
2023-05-05T11:55:06.289Z,28.24
2023-05-05T11:58:21.094Z,27.09
2023-05-05T12:01:29.154Z,26.80
2023-05-05T12:04:48.121Z,26.48
2023-05-05T12:08:10.143Z,24.56
2023-05-05T12:11:27.219Z,25.50
2023-05-05T12:14:59.499Z,24.43
2023-05-05T12:18:20.447Z,24.17
2023-05-05T12:21:41.142Z,23.89
2023-05-05T12:25:03.296Z,23.11
2023-05-05T12:28:25.162Z,23.12
2023-05-05T12:31:38.167Z,22.68
2023-05-05T12:34:49.040Z,23.29
2023-05-05T12:38:00.179Z,24.05
2023-05-05T12:41:21.530Z,23.83
2023-05-05T12:44:37.841Z,22.53
2023-05-05T12:47:47.757Z,22.04
2023-05-05T12:50:54.600Z,21.36
2023-05-05T12:54:11.609Z,21.06
2023-05-05T12:57:14.718Z,22.34
2023-05-05T13:00:26.202Z,21.17
2023-05-05T13:03:48.274Z,21.82
2023-05-05T13:07:15.396Z,22.81
2023-05-05T13:10:32.359Z,22.57
2023-05-05T13:13:36.454Z,21.41
2023-05-05T13:16:40.173Z,22.50
2023-05-05T13:19:51.001Z,22.98
2023-05-05T13:23:05.517Z,23.69
2023-05-05T13:26:40.837Z,22.79
2023-05-05T13:30:04.895Z,21.57
2023-05-05T13:33:27.851Z,21.44
2023-05-05T13:36:40.588Z,20.01
2023-05-05T13:39:49.827Z,19.68
2023-05-05T13:43:26.665Z,19.23
2023-05-05T13:46:55.892Z,18.76
2023-05-05T13:50:07.971Z,18.96
2023-05-05T13:53:11.079Z,17.72
2023-05-05T13:56:14.705Z,18.48
2023-05-05T13:59:26.214Z,18.56
2023-05-05T14:02:30.079Z,18.41
2023-05-05T14:05:54.498Z,18.86
2023-05-05T14:09:15.134Z,17.37
2023-05-05T14:12:36.092Z,17.00
2023-05-05T14:15:53.103Z,16.85
2023-05-05T14:19:06.974Z,16.70
2023-05-05T14:22:14.267Z,17.55
2023-05-05T14:25:28.600Z,16.71
2023-05-05T14:28:49.930Z,16.74
2023-05-05T14:32:08.029Z,16.86
2023-05-05T14:35:24.751Z,16.22
2023-05-05T14:38:38.641Z,16.25
2023-05-05T14:41:55.241Z,17.26
2023-05-05T14:44:58.653Z,16.63
2023-05-05T14:48:08.386Z,16.54
2023-05-05T14:51:17.405Z,18.27
2023-05-05T14:54:28.266Z,18.77
2023-05-05T14:57:39.045Z,20.41
2023-05-05T15:00:46.253Z,19.86
2023-05-05T15:04:06.824Z,20.72
2023-05-05T15:07:32.838Z,20.25
2023-05-05T15:10:50.884Z,19.52
2023-05-05T15:13:54.063Z,19.89
2023-05-05T15:16:57.788Z,21.27
2023-05-05T15:20:20.867Z,22.81
2023-05-05T15:23:58.443Z,24.00
2023-05-05T15:27:33.907Z,24.13
2023-05-05T15:31:01.902Z,23.20
2023-05-05T15:34:24.905Z,23.16
2023-05-05T15:37:42.811Z,23.14
2023-05-05T15:41:06.733Z,23.68
2023-05-05T15:44:32.830Z,23.80
2023-05-05T15:47:54.902Z,23.82
2023-05-05T15:51:04.725Z,23.88
2023-05-05T15:54:22.686Z,24.01
2023-05-05T15:57:51.789Z,24.41
2023-05-05T16:01:26.859Z,25.40
2023-05-05T16:04:47.988Z,25.63
2023-05-05T16:08:10.634Z,25.57
2023-05-05T16:11:27.822Z,25.16
2023-05-05T16:14:48.129Z,25.37
2023-05-05T16:18:07.804Z,26.16
2023-05-05T16:21:37.046Z,26.89
2023-05-05T16:24:56.698Z,26.85
2023-05-05T16:28:12.929Z,26.91
2023-05-05T16:31:26.735Z,27.29
2023-05-05T16:34:29.892Z,26.79
2023-05-05T16:37:39.440Z,27.02
2023-05-05T16:41:02.808Z,26.98
2023-05-05T16:44:17.365Z,27.44
2023-05-05T16:47:27.335Z,28.42
2023-05-05T16:50:37.906Z,29.23
2023-05-05T16:53:44.351Z,29.23
2023-05-05T16:56:51.085Z,29.34
2023-05-05T16:59:56.307Z,28.19
2023-05-05T17:03:23.017Z,26.49
2023-05-05T17:06:26.887Z,25.03
2023-05-05T17:09:45.468Z,25.75
2023-05-05T17:13:06.398Z,27.02
2023-05-05T17:16:28.455Z,28.19
2023-05-05T17:19:31.700Z,29.72
2023-05-05T17:22:35.331Z,30.07
2023-05-05T17:25:47.052Z,30.44
2023-05-05T17:28:53.070Z,30.64
2023-05-05T17:31:56.842Z,30.75
2023-05-05T17:34:59.650Z,30.87
2023-05-05T17:38:15.790Z,30.70
2023-05-05T17:41:38.633Z,30.81
2023-05-05T17:45:08.804Z,30.97
2023-05-05T17:48:32.929Z,31.13
2023-05-05T17:51:55.498Z,31.19
2023-05-05T17:55:17.481Z,31.55
2023-05-05T17:58:40.578Z,30.95
2023-05-05T18:02:03.482Z,30.95
2023-05-05T18:05:24.513Z,31.30
2023-05-05T18:08:50.128Z,31.77
2023-05-05T18:12:09.462Z,31.54
2023-05-05T18:15:26.403Z,31.42
2023-05-05T18:18:48.542Z,32.17
2023-05-05T18:22:16.503Z,32.87
2023-05-05T18:25:38.637Z,33.53
2023-05-05T18:29:01.411Z,34.16
2023-05-05T18:32:22.488Z,35.65
2023-05-05T18:35:38.564Z,36.22
2023-05-05T18:38:58.753Z,37.31
2023-05-05T18:42:24.521Z,37.38
2023-05-05T18:45:48.550Z,37.54
2023-05-05T18:48:51.620Z,37.77
2023-05-05T18:51:56.456Z,37.99
2023-05-05T18:55:10.307Z,38.45
2023-05-05T18:58:31.961Z,38.34
2023-05-05T19:01:42.938Z,38.75
2023-05-05T19:04:48.033Z,38.91
2023-05-05T19:07:52.093Z,39.50
2023-05-05T19:10:58.990Z,39.38
2023-05-05T19:14:02.696Z,39.66
2023-05-05T19:17:10.659Z,39.63
2023-05-05T19:20:29.178Z,40.16
2023-05-05T19:23:51.141Z,40.82
2023-05-05T19:26:54.399Z,41.61
2023-05-05T19:29:58.020Z,40.86
2023-05-05T19:33:04.857Z,41.86
2023-05-05T19:36:14.853Z,42.73
2023-05-05T19:39:18.998Z,43.57
2023-05-05T19:42:26.760Z,44.82
2023-05-05T19:45:31.572Z,45.83
2023-05-05T19:48:35.177Z,46.39
2023-05-05T19:51:38.202Z,47.36
2023-05-05T19:54:45.054Z,47.66
2023-05-05T19:57:52.770Z,48.11
2023-05-05T20:00:59.618Z,48.25
2023-05-05T20:04:22.302Z,49.06
2023-05-05T20:07:43.175Z,49.19
2023-05-05T20:11:06.124Z,48.66
2023-05-05T20:14:29.427Z,49.32
2023-05-05T20:17:32.529Z,49.93
2023-05-05T20:20:48.218Z,49.98
2023-05-05T20:24:24.237Z,50.04
2023-05-05T20:27:56.165Z,50.09
2023-05-05T20:31:18.149Z,50.19
2023-05-05T20:34:41.193Z,50.72
2023-05-05T20:38:03.277Z,51.45
2023-05-05T20:41:06.473Z,51.85
2023-05-05T20:44:10.385Z,51.96
2023-05-05T20:47:27.606Z,52.71
2023-05-05T20:50:41.836Z,53.02
2023-05-05T20:53:44.962Z,53.45
2023-05-05T20:56:47.704Z,53.46
2023-05-05T20:59:50.580Z,54.29
2023-05-05T21:03:06.396Z,54.59
2023-05-05T21:06:32.208Z,54.52
2023-05-05T21:09:48.399Z,54.29
2023-05-05T21:12:52.143Z,55.14
2023-05-05T21:15:55.164Z,55.19
2023-05-05T21:19:04.636Z,55.51
2023-05-05T21:22:15.548Z,56.05
2023-05-05T21:25:22.200Z,56.21
2023-05-05T21:28:29.317Z,56.53
2023-05-05T21:31:50.235Z,55.72
2023-05-05T21:34:53.380Z,56.26
2023-05-05T21:37:58.160Z,56.23
2023-05-05T21:41:07.890Z,56.25
2023-05-05T21:44:17.598Z,56.50
2023-05-05T21:47:28.852Z,56.51
2023-05-05T21:50:45.489Z,56.95
2023-05-05T21:53:48.715Z,57.29
2023-05-05T21:57:02.386Z,57.31
2023-05-05T22:00:08.267Z,57.38
2023-05-05T22:03:17.017Z,57.35
2023-05-05T22:06:38.074Z,57.92
2023-05-05T22:09:41.202Z,57.65
2023-05-05T22:13:05.064Z,57.82
2023-05-05T22:16:29.024Z,58.28
2023-05-05T22:20:05.012Z,58.25
2023-05-05T22:23:28.141Z,58.51
2023-05-05T22:26:31.151Z,59.36
2023-05-05T22:29:41.858Z,58.62
2023-05-05T22:32:46.605Z,59.11
2023-05-05T22:36:03.170Z,59.58
2023-05-05T22:39:09.453Z,60.52
2023-05-05T22:42:13.525Z,60.60
2023-05-05T22:45:28.066Z,61.12
2023-05-05T22:48:32.943Z,60.87
2023-05-05T22:51:49.501Z,61.20
2023-05-05T22:55:21.845Z,61.73
2023-05-05T22:58:38.586Z,62.32
2023-05-05T23:02:07.896Z,62.45
2023-05-05T23:05:31.010Z,62.58
2023-05-05T23:08:55.876Z,62.87
2023-05-05T23:12:22.077Z,62.11
2023-05-05T23:15:44.840Z,63.63
2023-05-05T23:19:05.988Z,62.70
2023-05-05T23:22:28.789Z,61.72
2023-05-05T23:25:47.062Z,61.84
2023-05-05T23:29:06.948Z,62.23
2023-05-05T23:32:33.905Z,62.17
2023-05-05T23:35:53.807Z,63.13
2023-05-05T23:39:13.785Z,63.16
2023-05-05T23:42:36.780Z,63.23
2023-05-05T23:45:53.919Z,63.31
2023-05-05T23:48:57.970Z,62.84
2023-05-05T23:52:01.194Z,62.95
2023-05-05T23:55:12.418Z,63.36
2023-05-05T23:58:27.710Z,63.10
